Time;durP1;ratioP1;P1;durP2;ratioP2;P2;SDS_P1;SDS_P2;PMS_P1;PMS_P2;Temp;Humidity;BMP_temperature;BMP_pressure;BME280_temperature;BME280_humidity;BME280_pressure;Samples;Min_cycle;Max_cycle;Signal;HPM_P1;HPM_P2
2022/05/28 00:01:28;;;;;;;1.20;1.10;;;14.40;99.30;;;;;;5025621;28;20140;-76
2022/05/28 00:03:57;;;;;;;1.40;1.00;;;14.30;99.10;;;;;;5034570;28;20052;-78
2022/05/28 00:06:24;;;;;;;0.80;0.80;;;14.30;99.30;;;;;;5034514;28;20049;-78
2022/05/28 00:08:50;;;;;;;1.10;0.88;;;14.30;99.40;;;;;;5032861;28;20016;-77
2022/05/28 00:11:25;;;;;;;0.80;0.80;;;14.20;99.60;;;;;;5060175;28;20469;-77
2022/05/28 00:13:52;;;;;;;0.77;0.77;;;14.10;99.80;;;;;;5057076;28;20097;-78
2022/05/28 00:16:19;;;;;;;1.15;1.05;;;14.00;99.90;;;;;;5074494;28;20042;-79
2022/05/28 00:18:45;;;;;;;0.70;0.70;;;14.00;99.90;;;;;;5062719;28;20018;-80
2022/05/28 00:21:12;;;;;;;1.88;1.15;;;13.90;99.90;;;;;;5051077;28;20463;-78
2022/05/28 00:23:39;;;;;;;0.80;0.80;;;13.80;99.90;;;;;;5042472;28;20029;-77
2022/05/28 00:26:06;;;;;;;0.80;0.80;;;13.80;99.90;;;;;;5021290;28;20433;-79
2022/05/28 00:28:33;;;;;;;0.77;0.77;;;13.70;99.90;;;;;;5039914;28;20025;-78
2022/05/28 00:31:00;;;;;;;1.50;1.33;;;13.70;99.90;;;;;;5042302;28;20044;-79
2022/05/28 00:33:26;;;;;;;1.05;1.00;;;13.60;99.90;;;;;;5038657;28;20036;-78
2022/05/28 00:35:52;;;;;;;1.50;1.20;;;13.60;99.90;;;;;;5038923;28;20033;-77
2022/05/28 00:38:18;;;;;;;1.42;1.10;;;13.60;99.90;;;;;;5047700;28;20017;-78
2022/05/28 00:40:50;;;;;;;1.30;1.20;;;13.50;99.90;;;;;;5052053;28;20025;-78
2022/05/28 00:43:16;;;;;;;1.38;1.10;;;13.50;99.90;;;;;;5059662;28;20434;-77
2022/05/28 00:45:43;;;;;;;1.33;1.23;;;13.50;99.90;;;;;;5046574;28;20497;-78
2022/05/28 00:48:10;;;;;;;4.97;1.27;;;13.40;99.90;;;;;;5039587;28;20029;-78
2022/05/28 00:50:37;;;;;;;2.92;1.00;;;13.40;99.90;;;;;;5039519;28;20021;-78
2022/05/28 00:53:04;;;;;;;1.30;1.20;;;13.40;99.90;;;;;;5039355;28;20029;-78
2022/05/28 00:55:33;;;;;;;0.80;0.80;;;13.40;99.90;;;;;;5040931;28;20025;-79
2022/05/28 00:58:01;;;;;;;2.28;1.23;;;13.30;99.90;;;;;;5038125;28;20025;-79
2022/05/28 01:00:27;;;;;;;0.85;0.85;;;13.40;99.90;;;;;;5041577;28;20018;-78
2022/05/28 01:03:06;;;;;;;1.90;0.95;;;13.50;99.90;;;;;;5041248;28;20057;-79
2022/05/28 01:06:01;;;;;;;1.30;1.20;;;13.60;99.90;;;;;;5040101;28;20084;-78
2022/05/28 01:08:44;;;;;;;1.00;1.00;;;13.70;99.90;;;;;;5023336;28;20044;-79
2022/05/28 01:11:49;;;;;;;1.23;0.90;;;13.90;99.90;;;;;;5055683;28;20208;-78
2022/05/28 01:14:40;;;;;;;1.33;1.23;;;14.00;99.90;;;;;;5059989;28;20032;-78
2022/05/28 01:17:33;;;;;;;1.10;1.00;;;14.00;99.90;;;;;;5060323;28;20040;-78
2022/05/28 01:20:22;;;;;;;0.88;0.85;;;14.00;99.90;;;;;;5055116;28;20022;-79
2022/05/28 01:23:17;;;;;;;1.33;1.10;;;14.10;99.90;;;;;;5040922;28;20017;-81
2022/05/28 01:26:12;;;;;;;1.13;1.00;;;14.10;99.90;;;;;;5041696;28;20013;-79
2022/05/28 01:28:45;;;;;;;1.90;1.17;;;14.10;99.90;;;;;;5043236;28;20022;-79
2022/05/28 01:31:12;;;;;;;1.40;1.30;;;14.10;99.90;;;;;;5045395;28;20043;-79
2022/05/28 01:33:41;;;;;;;1.33;1.20;;;14.10;99.90;;;;;;5033329;28;20044;-79
2022/05/28 01:36:10;;;;;;;1.58;1.05;;;14.00;99.90;;;;;;5048504;28;20088;-79
2022/05/28 01:38:38;;;;;;;1.20;1.10;;;14.10;99.90;;;;;;5061386;28;20056;-77
2022/05/28 01:41:06;;;;;;;1.35;1.20;;;14.00;99.90;;;;;;5059186;28;20020;-78
2022/05/28 01:43:37;;;;;;;1.40;1.00;;;14.00;99.90;;;;;;5055782;28;20044;-78
2022/05/28 01:46:04;;;;;;;1.13;0.98;;;14.00;99.90;;;;;;5037553;28;20087;-79
2022/05/28 01:48:31;;;;;;;2.63;1.00;;;14.00;99.90;;;;;;5035242;28;20102;-78
2022/05/28 01:50:58;;;;;;;1.00;1.00;;;14.00;99.90;;;;;;5034836;28;20502;-78
2022/05/28 01:56:11;;;;;;;0.95;0.88;;;14.00;99.90;;;;;;5038240;28;20033;-79
2022/05/28 01:58:37;;;;;;;0.73;0.73;;;13.90;99.90;;;;;;5036647;28;20045;-78
2022/05/28 02:01:05;;;;;;;1.50;1.17;;;14.00;99.90;;;;;;5041262;28;20049;-78
2022/05/28 02:03:33;;;;;;;2.45;1.40;;;14.00;99.90;;;;;;5022446;28;20025;-79
2022/05/28 02:05:59;;;;;;;1.88;1.77;;;14.00;99.20;;;;;;5041554;28;20086;-78
2022/05/28 02:08:28;;;;;;;2.15;1.75;;;14.00;99.30;;;;;;5046933;28;20048;-80
2022/05/28 02:11:08;;;;;;;2.50;1.63;;;14.00;99.10;;;;;;5055958;28;20029;-79
2022/05/28 02:14:21;;;;;;;2.10;1.48;;;14.00;99.10;;;;;;5056916;28;20035;-80
2022/05/28 02:17:10;;;;;;;1.80;1.20;;;14.00;98.60;;;;;;4987185;28;20050;-78
2022/05/28 02:20:02;;;;;;;3.00;1.42;;;13.90;98.60;;;;;;5047287;28;20025;-77
2022/05/28 02:22:44;;;;;;;1.98;1.60;;;13.90;98.70;;;;;;5055657;28;20097;-80
2022/05/28 02:25:19;;;;;;;2.28;1.60;;;13.80;98.50;;;;;;5049636;28;20056;-80
2022/05/28 02:27:47;;;;;;;2.92;1.70;;;13.80;98.50;;;;;;5029324;28;20109;-77
2022/05/28 02:30:14;;;;;;;1.70;1.60;;;13.70;98.50;;;;;;5052287;28;20017;-77
2022/05/28 02:32:40;;;;;;;4.63;1.80;;;13.70;98.70;;;;;;5050250;28;20030;-79
2022/05/28 02:35:06;;;;;;;2.80;1.70;;;13.60;98.70;;;;;;5041893;28;20041;-78
2022/05/28 02:37:32;;;;;;;3.50;1.55;;;13.60;99.10;;;;;;5021340;28;20029;-79
2022/05/28 02:39:58;;;;;;;2.85;2.10;;;13.50;99.30;;;;;;5050531;28;20390;-79
2022/05/28 02:42:24;;;;;;;1.70;1.58;;;13.40;99.50;;;;;;5058980;28;20039;-79
2022/05/28 02:44:50;;;;;;;2.83;2.35;;;13.40;99.60;;;;;;5057685;28;20031;-78
2022/05/28 02:47:16;;;;;;;1.85;1.65;;;13.30;99.80;;;;;;5056695;28;20497;-80
2022/05/28 02:49:42;;;;;;;3.88;2.15;;;13.30;99.90;;;;;;5056855;28;20025;-79
2022/05/28 02:52:08;;;;;;;3.08;1.60;;;13.30;99.90;;;;;;5057026;28;20123;-78
2022/05/28 02:54:35;;;;;;;2.13;1.92;;;13.20;99.90;;;;;;5057136;28;20033;-79
2022/05/28 02:57:02;;;;;;;2.25;2.05;;;13.10;99.90;;;;;;5050642;28;20051;-79
2022/05/28 02:59:28;;;;;;;2.03;1.92;;;13.10;99.90;;;;;;5040614;28;20041;-78
2022/05/28 03:01:54;;;;;;;3.35;2.08;;;13.10;99.90;;;;;;5036523;28;20033;-79
2022/05/28 03:04:20;;;;;;;2.28;2.08;;;13.00;99.90;;;;;;5037700;28;20056;-78
2022/05/28 03:06:45;;;;;;;3.20;1.90;;;13.00;99.90;;;;;;5037657;28;20033;-79
2022/05/28 03:09:11;;;;;;;1.92;1.83;;;13.00;99.90;;;;;;5047664;28;20024;-80
2022/05/28 03:11:38;;;;;;;2.45;1.80;;;13.10;99.90;;;;;;5055893;28;20385;-78
2022/05/28 03:14:04;;;;;;;2.45;2.00;;;13.10;99.90;;;;;;5057313;28;20025;-79
2022/05/28 03:16:30;;;;;;;4.32;1.80;;;13.20;99.90;;;;;;5036941;28;20036;-78
2022/05/28 03:18:56;;;;;;;5.10;2.50;;;13.20;99.90;;;;;;5037413;28;20052;-78
2022/05/28 03:21:23;;;;;;;2.40;1.90;;;13.10;99.90;;;;;;5036866;28;20026;-78
2022/05/28 03:23:48;;;;;;;3.17;1.83;;;13.10;99.80;;;;;;5038302;28;20052;-78
2022/05/28 03:26:15;;;;;;;3.63;2.40;;;13.10;98.80;;;;;;5021130;28;20048;-78
2022/05/28 03:28:41;;;;;;;8.27;2.70;;;13.10;98.40;;;;;;5020216;28;20032;-78
2022/05/28 03:31:07;;;;;;;2.33;1.80;;;13.10;98.40;;;;;;5042054;28;20139;-78
2022/05/28 03:33:33;;;;;;;3.38;2.00;;;13.00;98.70;;;;;;5045071;28;20041;-79
2022/05/28 03:35:59;;;;;;;2.28;1.77;;;13.00;98.50;;;;;;5046959;28;20029;-79
2022/05/28 03:38:25;;;;;;;3.47;2.20;;;13.00;98.60;;;;;;5048515;28;20028;-79
2022/05/28 03:40:51;;;;;;;6.45;2.83;;;13.10;98.40;;;;;;5062185;28;20021;-78
2022/05/28 03:43:17;;;;;;;3.92;2.28;;;13.10;98.00;;;;;;5073735;28;20029;-79
2022/05/28 03:45:42;;;;;;;2.88;2.20;;;13.10;97.90;;;;;;5047639;28;20070;-80
2022/05/28 03:48:11;;;;;;;5.45;2.13;;;13.10;98.10;;;;;;5074459;28;20029;-78
2022/05/28 03:50:37;;;;;;;4.72;3.20;;;13.10;98.10;;;;;;5049582;28;20025;-80
2022/05/28 03:53:03;;;;;;;8.00;2.65;;;13.10;98.40;;;;;;5022828;28;20566;-78
2022/05/28 03:55:29;;;;;;;2.63;2.25;;;13.10;98.60;;;;;;5020015;28;20044;-78
2022/05/28 03:57:54;;;;;;;6.60;2.78;;;13.10;98.70;;;;;;5038746;28;20018;-78
2022/05/28 04:00:20;;;;;;;4.63;2.08;;;13.20;97.90;;;;;;5044391;28;20025;-79
2022/05/28 04:02:46;;;;;;;9.48;2.92;;;13.20;97.60;;;;;;5025156;28;20128;-77
2022/05/28 04:05:12;;;;;;;3.33;2.28;;;13.20;97.70;;;;;;5040387;28;20032;-79
2022/05/28 04:07:39;;;;;;;5.03;2.20;;;13.20;97.30;;;;;;5025338;28;20028;-79
2022/05/28 04:10:07;;;;;;;7.22;2.47;;;13.10;96.70;;;;;;5047075;28;20053;-79
2022/05/28 04:12:33;;;;;;;6.45;3.28;;;13.10;96.70;;;;;;5024679;28;20620;-78
2022/05/28 04:14:59;;;;;;;4.55;2.83;;;13.10;96.90;;;;;;5040070;28;20025;-78
2022/05/28 04:17:24;;;;;;;3.97;2.90;;;13.10;96.70;;;;;;5041846;28;20083;-78
2022/05/28 04:19:50;;;;;;;5.65;2.75;;;13.10;96.50;;;;;;5042070;28;20021;-78
2022/05/28 04:22:16;;;;;;;7.32;2.72;;;13.10;96.20;;;;;;5039904;28;20089;-79
2022/05/28 04:24:42;;;;;;;5.80;2.42;;;13.10;95.60;;;;;;5042748;28;20119;-79
2022/05/28 04:27:08;;;;;;;7.32;2.60;;;13.20;94.70;;;;;;5043846;28;20485;-78
2022/05/28 04:29:34;;;;;;;8.25;3.17;;;13.20;95.00;;;;;;5041656;28;20121;-79
2022/05/28 04:31:59;;;;;;;5.50;2.92;;;13.30;93.50;;;;;;5047677;28;20091;-78
2022/05/28 04:34:25;;;;;;;6.97;1.85;;;13.40;93.20;;;;;;5047953;28;20052;-78
2022/05/28 04:36:51;;;;;;;4.90;2.10;;;13.50;92.80;;;;;;5042083;28;20218;-79
2022/05/28 04:39:17;;;;;;;9.13;3.10;;;13.40;92.90;;;;;;5052191;28;20154;-80
2022/05/28 04:41:43;;;;;;;6.45;2.72;;;13.50;93.10;;;;;;5045896;28;20025;-80
2022/05/28 04:44:09;;;;;;;2.85;2.00;;;13.40;93.50;;;;;;5042990;28;20034;-78
2022/05/28 04:46:35;;;;;;;8.07;2.47;;;13.40;92.90;;;;;;5040102;28;20026;-78
2022/05/28 04:49:01;;;;;;;10.88;2.42;;;13.40;92.20;;;;;;5022227;28;20033;-79
2022/05/28 04:51:26;;;;;;;8.77;2.17;;;13.40;91.50;;;;;;5039236;28;20052;-79
2022/05/28 04:53:52;;;;;;;6.45;2.78;;;13.30;91.30;;;;;;5039396;28;20049;-78
2022/05/28 04:56:19;;;;;;;7.60;2.20;;;13.20;91.70;;;;;;5040048;28;20025;-80
2022/05/28 04:58:44;;;;;;;7.72;2.30;;;13.20;91.40;;;;;;5039908;28;20482;-79
2022/05/28 05:01:19;;;;;;;8.60;2.47;;;13.20;91.40;;;;;;5039241;28;20116;-79
2022/05/28 05:03:45;;;;;;;6.38;2.28;;;13.20;90.90;;;;;;5041406;28;20018;-78
2022/05/28 05:06:10;;;;;;;11.07;2.67;;;13.20;90.50;;;;;;5042869;28;20028;-79
2022/05/28 05:08:36;;;;;;;7.78;2.22;;;13.20;89.20;;;;;;5062650;28;20077;-79
2022/05/28 05:11:02;;;;;;;9.00;2.40;;;13.10;88.90;;;;;;5047225;28;20052;-78
2022/05/28 05:13:28;;;;;;;4.55;2.10;;;13.10;88.60;;;;;;5038349;28;20036;-77
2022/05/28 05:15:54;;;;;;;6.30;1.95;;;13.10;88.10;;;;;;5039502;28;20057;-78
2022/05/28 05:18:19;;;;;;;4.65;2.35;;;13.20;88.10;;;;;;5038677;28;20415;-78
2022/05/28 05:20:45;;;;;;;5.38;1.92;;;13.40;86.70;;;;;;5040200;28;20021;-80
2022/05/28 05:23:11;;;;;;;5.63;1.92;;;13.90;86.70;;;;;;5040239;28;20033;-80
2022/05/28 05:25:37;;;;;;;10.00;2.50;;;14.20;81.70;;;;;;5040957;28;20029;-78
2022/05/28 05:28:03;;;;;;;4.13;1.73;;;14.00;77.90;;;;;;5041005;28;20041;-79
2022/05/28 05:30:29;;;;;;;4.07;1.50;;;13.80;75.30;;;;;;5021428;28;20033;-79
2022/05/28 05:32:55;;;;;;;7.30;1.48;;;14.00;75.30;;;;;;5039334;28;20032;-79
2022/05/28 05:35:21;;;;;;;4.57;1.70;;;15.30;72.40;;;;;;5039050;28;20490;-79
2022/05/28 05:37:47;;;;;;;4.00;2.03;;;15.80;67.90;;;;;;5025391;28;20120;-77
2022/05/28 05:40:13;;;;;;;8.13;1.77;;;15.20;66.90;;;;;;5050396;28;20033;-79
2022/05/28 05:42:39;;;;;;;7.88;1.73;;;15.20;68.60;;;;;;5061084;28;20405;-80
2022/05/28 05:45:06;;;;;;;7.70;1.80;;;16.00;65.50;;;;;;5046019;28;20053;-78
2022/05/28 05:47:32;;;;;;;4.20;1.08;;;15.70;64.00;;;;;;5060977;28;20064;-79
2022/05/28 05:49:57;;;;;;;7.15;1.85;;;15.10;66.00;;;;;;5038354;28;20425;-78
2022/05/28 05:52:23;;;;;;;4.88;1.63;;;14.60;67.10;;;;;;5071040;22;20476;-82
2022/05/28 05:54:49;;;;;;;12.60;2.00;;;14.10;69.00;;;;;;5067208;28;20037;-82
2022/05/28 05:57:14;;;;;;;5.45;1.60;;;13.70;70.40;;;;;;5059152;28;20024;-83
2022/05/28 05:59:40;;;;;;;8.85;1.30;;;13.40;72.50;;;;;;5078138;28;20538;-83
2022/05/28 06:02:07;;;;;;;6.22;1.73;;;13.40;73.80;;;;;;5077076;28;20119;-82
2022/05/28 06:04:32;;;;;;;6.70;1.70;;;13.50;74.80;;;;;;5051096;28;20036;-82
2022/05/28 06:07:03;;;;;;;6.32;1.80;;;13.60;73.50;;;;;;5055692;28;20025;-82
2022/05/28 06:09:29;;;;;;;6.15;1.55;;;13.60;73.40;;;;;;5055364;28;20071;-81
2022/05/28 06:11:55;;;;;;;5.70;1.83;;;13.60;72.10;;;;;;5035514;28;20549;-81
2022/05/28 06:14:20;;;;;;;8.75;1.98;;;13.50;72.40;;;;;;5054952;28;20035;-82
2022/05/28 06:16:46;;;;;;;6.13;1.95;;;13.40;72.60;;;;;;5058605;28;20058;-82
2022/05/28 06:19:12;;;;;;;4.88;1.30;;;13.60;70.90;;;;;;5061305;28;20167;-82
2022/05/28 06:21:37;;;;;;;6.13;1.55;;;15.10;69.30;;;;;;5056899;28;20151;-82
2022/05/28 06:24:03;;;;;;;9.10;1.90;;;17.90;60.30;;;;;;5063644;28;20021;-82
2022/05/28 06:26:29;;;;;;;5.03;1.60;;;18.50;54.40;;;;;;5069218;28;20089;-82
2022/05/28 06:28:55;;;;;;;10.77;1.90;;;17.50;56.00;;;;;;5058898;28;20025;-82
2022/05/28 06:31:21;;;;;;;7.00;1.75;;;16.80;57.70;;;;;;5058533;28;20055;-82
2022/05/28 06:33:46;;;;;;;10.85;1.70;;;17.90;57.20;;;;;;5077710;28;20096;-82
2022/05/28 06:36:13;;;;;;;7.30;1.73;;;19.80;54.50;;;;;;5059427;28;20032;-82
2022/05/28 06:38:40;;;;;;;8.70;2.03;;;22.20;49.20;;;;;;5058429;28;20020;-82
2022/05/28 06:41:06;;;;;;;4.07;1.38;;;23.80;45.20;;;;;;5039491;28;20025;-82
2022/05/28 06:43:33;;;;;;;7.65;1.95;;;23.60;44.20;;;;;;5039914;28;20025;-82
2022/05/28 06:46:04;;;;;;;10.32;2.30;;;21.60;45.80;;;;;;5040296;28;20029;-82
2022/05/28 06:48:30;;;;;;;8.02;1.88;;;;;;;;;;5039663;28;20028;-82
2022/05/28 06:51:02;;;;;;;11.13;1.88;;;18.40;51.20;;;;;;5058099;28;20449;-82
2022/05/28 06:53:36;;;;;;;6.22;1.90;;;18.80;52.40;;;;;;5060039;28;20044;-82
2022/05/28 06:56:07;;;;;;;4.60;1.33;;;18.80;53.30;;;;;;5052844;28;20028;-83
2022/05/28 06:58:33;;;;;;;7.05;1.67;;;19.80;52.50;;;;;;5060092;28;20033;-83
2022/05/28 07:00:59;;;;;;;11.15;2.42;;;21.40;50.10;;;;;;5060095;28;20029;-83
2022/05/28 07:03:27;;;;;;;7.07;1.90;;;23.20;46.40;;;;;;5066342;28;20371;-81
2022/05/28 07:05:54;;;;;;;9.77;2.30;;;23.50;44.20;;;;;;5044912;28;20025;-83
2022/05/28 07:08:23;;;;;;;10.43;2.63;;;23.50;44.80;;;;;;5062130;28;20033;-82
2022/05/28 07:10:59;;;;;;;9.57;1.92;;;23.80;44.00;;;;;;5045360;28;20464;-83
2022/05/28 07:13:26;;;;;;;7.15;2.00;;;21.60;46.00;;;;;;5066475;28;20048;-82
2022/05/28 07:15:52;;;;;;;7.43;2.10;;;19.10;50.60;;;;;;5060189;28;20059;-83
2022/05/28 07:18:19;;;;;;;5.25;1.73;;;17.40;53.80;;;;;;5043938;28;20235;-82
2022/05/28 07:20:45;;;;;;;10.00;2.30;;;16.30;57.60;;;;;;5044001;28;20461;-82
2022/05/28 07:23:26;;;;;;;7.03;1.98;;;15.70;59.60;;;;;;5047483;28;20025;-82
2022/05/28 07:26:18;;;;;;;8.75;2.20;;;15.50;60.90;;;;;;5045450;28;20017;-82
2022/05/28 07:28:45;;;;;;;9.10;2.33;;;15.50;61.00;;;;;;5069199;28;20060;-81
2022/05/28 07:31:18;;;;;;;6.07;1.88;;;15.50;60.80;;;;;;5071806;28;20028;-82
2022/05/28 07:33:46;;;;;;;7.95;2.60;;;15.50;61.50;;;;;;5062581;28;20039;-83
2022/05/28 07:36:17;;;;;;;7.38;2.28;;;15.70;61.10;;;;;;5067116;28;20029;-82
2022/05/28 07:38:43;;;;;;;8.88;2.08;;;15.70;61.20;;;;;;5055851;28;20021;-83
2022/05/28 07:41:15;;;;;;;12.45;2.70;;;15.80;61.80;;;;;;5066463;28;20029;-81
2022/05/28 07:43:44;;;;;;;6.43;2.22;;;15.90;61.30;;;;;;5066861;28;20021;-82
2022/05/28 07:46:15;;;;;;;10.65;2.58;;;15.70;62.10;;;;;;5050143;28;20048;-82
2022/05/28 07:48:41;;;;;;;9.43;2.28;;;15.60;61.50;;;;;;5067382;28;20080;-81
2022/05/28 07:51:07;;;;;;;9.50;2.30;;;15.40;61.60;;;;;;5063390;28;20033;-81
2022/05/28 07:53:34;;;;;;;6.22;1.98;;;15.20;62.40;;;;;;5064797;28;20033;-83
2022/05/28 07:56:01;;;;;;;7.10;2.25;;;15.10;63.40;;;;;;5057686;28;20024;-82
2022/05/28 07:58:27;;;;;;;7.07;2.08;;;15.10;62.10;;;;;;5084300;28;20024;-83
2022/05/28 08:00:52;;;;;;;8.43;2.05;;;15.00;62.20;;;;;;5066499;28;20078;-82
2022/05/28 08:03:19;;;;;;;8.85;2.17;;;15.00;63.20;;;;;;5066279;28;20081;-82
2022/05/28 08:05:47;;;;;;;5.22;1.75;;;15.10;63.50;;;;;;5085645;28;20096;-83
2022/05/28 08:08:14;;;;;;;6.00;1.85;;;15.50;61.00;;;;;;5068892;28;20025;-82
2022/05/28 08:10:40;;;;;;;8.50;2.13;;;15.90;59.20;;;;;;5066661;28;20029;-84
2022/05/28 08:13:11;;;;;;;7.95;2.13;;;16.10;57.00;;;;;;5065144;28;20075;-83
2022/05/28 08:15:39;;;;;;;12.20;2.28;;;16.20;56.70;;;;;;5047365;28;20108;-84
2022/05/28 08:18:07;;;;;;;5.82;1.83;;;16.20;55.90;;;;;;5046090;28;20021;-84
2022/05/28 08:23:19;;;;;;;5.80;1.75;;;16.10;55.40;;;;;;5064513;28;20054;-82
2022/05/28 08:25:46;;;;;;;5.03;1.30;;;16.10;55.70;;;;;;5062188;28;20033;-83
2022/05/28 08:28:14;;;;;;;10.57;2.28;;;16.20;56.10;;;;;;5067910;28;20036;-84
2022/05/28 08:30:40;;;;;;;7.10;2.13;;;16.20;54.80;;;;;;5063924;28;20033;-82
2022/05/28 08:33:08;;;;;;;5.28;1.63;;;16.00;55.50;;;;;;5064235;28;20033;-82
2022/05/28 08:35:34;;;;;;;6.03;1.50;;;16.00;55.70;;;;;;5045509;28;20029;-81
2022/05/28 08:38:05;;;;;;;4.40;1.50;;;15.90;55.10;;;;;;5061724;28;20081;-81
2022/05/28 08:40:36;;;;;;;5.50;1.35;;;15.90;56.70;;;;;;5043542;28;20091;-82
2022/05/28 08:43:02;;;;;;;7.65;1.85;;;16.10;56.70;;;;;;5043941;28;20024;-82
2022/05/28 08:45:31;;;;;;;4.88;1.63;;;16.20;54.60;;;;;;5045433;28;20029;-80
2022/05/28 08:47:56;;;;;;;9.43;2.50;;;16.00;55.20;;;;;;5054310;28;20025;-80
2022/05/28 08:50:22;;;;;;;6.55;2.60;;;15.80;56.50;;;;;;5047699;28;20036;-82
2022/05/28 08:53:18;;;;;;;4.63;1.42;;;15.90;55.30;;;;;;5063059;28;20032;-82
2022/05/28 08:55:47;;;;;;;6.25;1.33;;;15.70;54.70;;;;;;5060868;28;20033;-80
2022/05/28 08:58:17;;;;;;;5.32;1.60;;;15.70;54.60;;;;;;5074284;28;20055;-81
2022/05/28 09:00:58;;;;;;;4.57;1.40;;;15.70;53.70;;;;;;5072684;28;20036;-82
2022/05/28 09:03:44;;;;;;;4.07;1.30;;;15.70;53.40;;;;;;5047517;28;20470;-81
2022/05/28 09:06:43;;;;;;;4.03;1.08;;;15.70;52.00;;;;;;5031963;28;20466;-82
2022/05/28 09:09:12;;;;;;;4.85;1.20;;;15.70;49.50;;;;;;5030893;28;20029;-81
2022/05/28 09:11:49;;;;;;;3.42;0.95;;;15.70;50.00;;;;;;5045546;28;20108;-83
2022/05/28 09:14:32;;;;;;;6.15;1.00;;;15.90;49.50;;;;;;5054593;28;20099;-80
2022/05/28 09:17:00;;;;;;;;;;;16.10;48.50;;;;;;5051253;28;20009;-81
2022/05/28 09:19:30;;;;;;;4.68;0.60;;;16.10;47.80;;;;;;5072343;28;19904;-82
2022/05/28 09:21:56;;;;;;;2.72;1.02;;;16.20;46.40;;;;;;5045032;28;20025;-82
2022/05/28 09:24:27;;;;;;;3.20;0.68;;;16.30;46.30;;;;;;5052682;28;20051;-83
2022/05/28 09:26:59;;;;;;;4.15;0.90;;;16.30;46.50;;;;;;5057634;28;20066;-83
2022/05/28 09:29:35;;;;;;;5.28;0.90;;;16.40;47.40;;;;;;5064098;28;20039;-82
2022/05/28 09:32:12;;;;;;;4.00;0.90;;;16.60;47.80;;;;;;5080150;28;20016;-82
2022/05/28 09:34:56;;;;;;;2.35;1.20;;;16.80;47.70;;;;;;5062637;28;20119;-83
2022/05/28 09:37:25;;;;;;;4.75;1.27;;;16.90;46.80;;;;;;5042655;28;20121;-80
2022/05/28 09:40:17;;;;;;;1.85;0.70;;;17.00;46.00;;;;;;5023728;28;20025;-81
2022/05/28 09:42:46;;;;;;;;;;;16.90;46.90;;;;;;5023715;28;20025;-79
2022/05/28 09:45:25;;;;;;;3.58;1.00;;;16.90;46.50;;;;;;5023450;28;19905;-80
2022/05/28 09:47:52;;;;;;;3.00;0.82;;;16.70;46.20;;;;;;5040717;28;20044;-81
2022/05/28 09:50:22;;;;;;;4.30;0.77;;;16.80;46.40;;;;;;5040968;28;20030;-81
2022/05/28 09:55:55;;;;;;;2.78;1.08;;;17.30;46.30;;;;;;5046728;28;20029;-81
2022/05/28 09:58:26;;;;;;;1.23;0.55;;;17.40;47.20;;;;;;5025589;28;20017;-81
2022/05/28 10:01:02;;;;;;;3.67;0.63;;;17.60;46.70;;;;;;5027607;28;20033;-79
2022/05/28 10:06:32;;;;;;;1.92;0.80;;;18.10;46.30;;;;;;5053792;28;20048;-80
2022/05/28 10:08:58;;;;;;;2.85;1.05;;;18.30;46.10;;;;;;5029492;28;20056;-81
2022/05/28 10:11:24;;;;;;;2.55;1.00;;;18.40;46.30;;;;;;5049695;28;20045;-82
2022/05/28 10:13:56;;;;;;;3.20;0.90;;;18.60;46.40;;;;;;5041915;28;20551;-81
2022/05/28 10:16:24;;;;;;;;;;;18.90;45.60;;;;;;5062144;28;20481;-81
2022/05/28 10:18:58;;;;;;;4.05;1.10;;;19.20;45.00;;;;;;5043047;28;19905;-81
2022/05/28 10:21:37;;;;;;;1.63;0.50;;;19.30;44.90;;;;;;5041578;28;20053;-80
2022/05/28 10:24:10;;;;;;;2.28;1.20;;;19.30;45.30;;;;;;5044323;28;20038;-82
2022/05/28 10:26:47;;;;;;;6.82;1.67;;;19.30;44.60;;;;;;5051273;28;20027;-80
2022/05/28 10:29:37;;;;;;;4.05;1.00;;;18.70;45.70;;;;;;5041263;28;20020;-82
2022/05/28 10:32:15;;;;;;;1.15;0.50;;;18.20;46.40;;;;;;5060224;28;20027;-80
2022/05/28 10:34:41;;;;;;;2.38;0.85;;;18.20;47.40;;;;;;5059848;28;20032;-80
2022/05/28 10:37:14;;;;;;;3.55;1.17;;;18.50;46.30;;;;;;5063493;28;20112;-80
2022/05/28 10:39:41;;;;;;;2.67;0.88;;;18.80;46.20;;;;;;5046769;28;20025;-81
2022/05/28 10:42:12;;;;;;;4.80;1.10;;;18.60;45.60;;;;;;5046027;28;20021;-81
2022/05/28 10:44:40;;;;;;;3.97;0.90;;;18.20;47.00;;;;;;5045994;28;20478;-80
2022/05/28 10:48:04;;;;;;;2.63;1.10;;;18.30;47.00;;;;;;5063485;28;20033;-83
2022/05/28 10:51:04;;;;;;;3.03;1.15;;;18.60;46.50;;;;;;4965970;28;20042;-82
2022/05/28 10:53:35;;;;;;;3.05;1.20;;;18.80;46.40;;;;;;5060401;28;20076;-82
2022/05/28 10:56:21;;;;;;;3.20;1.20;;;19.20;45.60;;;;;;5078945;28;20021;-81
2022/05/28 10:59:15;;;;;;;2.47;0.80;;;19.60;45.20;;;;;;5064162;28;20022;-81
2022/05/28 11:02:22;;;;;;;2.53;0.90;;;19.80;44.50;;;;;;5072125;28;20032;-80
2022/05/28 11:04:49;;;;;;;2.65;0.85;;;19.50;44.10;;;;;;5070034;28;20113;-81
2022/05/28 11:07:27;;;;;;;2.20;0.95;;;18.70;44.70;;;;;;5063398;28;20112;-80
2022/05/28 11:10:02;;;;;;;2.95;0.90;;;18.50;45.40;;;;;;5072663;28;20029;-79
2022/05/28 11:12:49;;;;;;;2.03;0.82;;;18.00;45.80;;;;;;5071141;28;20084;-79
2022/05/28 11:15:55;;;;;;;1.90;0.80;;;17.80;47.20;;;;;;5046664;28;20021;-82
2022/05/28 11:18:44;;;;;;;2.55;0.93;;;18.30;45.40;;;;;;5056830;28;20051;-79
2022/05/28 11:21:16;;;;;;;2.60;0.90;;;18.90;44.80;;;;;;5054549;28;20103;-82
2022/05/28 11:24:12;;;;;;;3.70;1.00;;;19.30;44.60;;;;;;5066491;28;20032;-81
2022/05/28 11:27:10;;;;;;;6.70;1.25;;;19.50;43.90;;;;;;5046476;28;20061;-82
2022/05/28 11:29:51;;;;;;;4.10;1.20;;;19.70;43.20;;;;;;5034740;28;20170;-80
2022/05/28 11:32:33;;;;;;;2.08;0.80;;;19.90;43.30;;;;;;5045723;28;20078;-82
2022/05/28 11:35:15;;;;;;;4.78;1.40;;;19.40;44.30;;;;;;5046213;28;20025;-79
2022/05/28 11:37:59;;;;;;;2.85;0.98;;;18.60;44.90;;;;;;5052519;28;20061;-80
2022/05/28 11:40:29;;;;;;;2.17;1.08;;;18.00;46.80;;;;;;5047875;28;20116;-80
2022/05/28 11:43:07;;;;;;;2.95;0.90;;;17.70;47.60;;;;;;5062578;28;20014;-81
2022/05/28 11:45:48;;;;;;;4.40;0.90;;;17.90;47.20;;;;;;5044538;28;20057;-83
2022/05/28 11:51:28;;;;;;;2.70;0.90;;;18.90;44.10;;;;;;5060952;28;20062;-81
2022/05/28 11:54:04;;;;;;;1.27;0.70;;;19.40;43.40;;;;;;5099376;23;20165;-78
2022/05/28 11:56:30;;;;;;;2.30;1.13;;;19.70;42.80;;;;;;5104683;28;20020;-78
2022/05/28 11:59:07;;;;;;;2.17;1.10;;;19.60;41.20;;;;;;5111802;28;20270;-78
2022/05/28 12:02:11;;;;;;;2.17;0.80;;;19.70;42.10;;;;;;5080649;28;20035;-78
2022/05/28 12:04:42;;;;;;;3.25;0.80;;;20.00;42.60;;;;;;5059543;28;20033;-78
2022/05/28 12:07:23;;;;;;;3.00;1.10;;;20.10;41.00;;;;;;5068890;28;20040;-79
2022/05/28 12:09:49;;;;;;;2.40;0.80;;;19.90;41.60;;;;;;5065002;28;20025;-79
2022/05/28 12:12:22;;;;;;;1.75;0.73;;;19.80;41.10;;;;;;5063918;28;20039;-79
2022/05/28 12:15:06;;;;;;;3.40;1.10;;;19.80;41.30;;;;;;5062893;28;20017;-80
2022/05/28 12:17:32;;;;;;;2.03;0.70;;;20.10;41.60;;;;;;5062489;28;20033;-80
2022/05/28 12:20:10;;;;;;;1.45;0.73;;;20.30;41.30;;;;;;5044131;28;20029;-80
2022/05/28 12:22:41;;;;;;;4.32;0.70;;;20.60;41.10;;;;;;5061625;28;20020;-80
2022/05/28 12:25:14;;;;;;;1.98;0.63;;;20.70;41.10;;;;;;5069711;28;20064;-79
2022/05/28 12:28:08;;;;;;;0.90;0.82;;;20.70;40.90;;;;;;5062813;28;20032;-79
2022/05/28 12:30:41;;;;;;;3.80;1.20;;;20.90;40.40;;;;;;5062743;28;20073;-79
2022/05/28 12:33:30;;;;;;;4.10;0.80;;;21.20;39.40;;;;;;5079728;28;20028;-78
2022/05/28 12:36:17;;;;;;;2.88;0.95;;;21.30;39.60;;;;;;5062645;28;20029;-79
2022/05/28 12:38:50;;;;;;;1.67;0.60;;;21.30;39.30;;;;;;5061313;28;20032;-78
2022/05/28 12:41:33;;;;;;;1.85;1.15;;;21.20;39.60;;;;;;5060825;28;20017;-78
2022/05/28 12:44:08;;;;;;;2.15;0.65;;;21.10;38.60;;;;;;5063465;28;20016;-78
2022/05/28 12:46:49;;;;;;;4.35;0.98;;;21.00;38.90;;;;;;5061060;28;20032;-79
2022/05/28 12:49:41;;;;;;;4.13;0.90;;;20.70;39.90;;;;;;5060742;28;20035;-78
2022/05/28 12:52:12;;;;;;;2.38;0.75;;;20.70;40.00;;;;;;5061560;28;20365;-79
2022/05/28 12:54:39;;;;;;;4.00;1.10;;;20.50;40.50;;;;;;5067856;28;20029;-79
2022/05/28 12:57:34;;;;;;;1.35;0.65;;;20.50;40.20;;;;;;5074372;28;20021;-79
2022/05/28 13:00:21;;;;;;;2.92;0.60;;;20.70;40.00;;;;;;5064961;28;20025;-79
2022/05/28 13:02:50;;;;;;;1.67;0.68;;;20.90;38.60;;;;;;5080825;28;20025;-79
2022/05/28 13:05:39;;;;;;;1.23;0.68;;;20.80;38.70;;;;;;5081249;28;20020;-78
2022/05/28 13:08:12;;;;;;;2.03;0.90;;;20.80;39.30;;;;;;5077184;28;20032;-79
2022/05/28 13:10:56;;;;;;;1.67;0.60;;;20.90;38.60;;;;;;5060654;28;20038;-80
2022/05/28 13:13:28;;;;;;;1.98;0.82;;;20.80;38.70;;;;;;5061212;28;20021;-78
2022/05/28 13:16:29;;;;;;;2.25;1.38;;;20.70;39.90;;;;;;5060623;28;20032;-79
2022/05/28 13:19:29;;;;;;;4.88;1.15;;;20.70;39.10;;;;;;5059877;28;20029;-77
2022/05/28 13:22:06;;;;;;;1.38;0.93;;;20.50;39.40;;;;;;5060983;28;20158;-79
2022/05/28 13:24:50;;;;;;;2.17;1.30;;;20.10;40.60;;;;;;5068127;28;20132;-79
2022/05/28 13:27:50;;;;;;;2.72;1.20;;;19.70;41.90;;;;;;5059552;28;20029;-79